createdAt,value
2023-04-09T00:01:43.293Z,52.10
2023-04-09T00:04:10.593Z,43.10
2023-04-09T00:06:38.370Z,43.00
2023-04-09T00:09:05.998Z,40.30
2023-04-09T00:11:33.572Z,40.80
2023-04-09T00:14:00.807Z,39.87
2023-04-09T00:16:28.019Z,38.50
2023-04-09T00:18:56.243Z,41.50
2023-04-09T00:21:23.575Z,36.10
2023-04-09T00:23:51.425Z,33.17
2023-04-09T00:26:18.962Z,37.03
2023-04-09T00:28:46.815Z,38.70
2023-04-09T00:31:13.998Z,29.17
2023-04-09T00:33:41.255Z,36.30
2023-04-09T00:36:08.556Z,30.50
2023-04-09T00:38:36.006Z,33.80
2023-04-09T00:41:03.214Z,32.40
2023-04-09T00:43:30.629Z,33.40
2023-04-09T00:45:59.426Z,31.27
2023-04-09T00:48:27.469Z,27.53
2023-04-09T00:50:54.860Z,31.63
2023-04-09T00:53:22.146Z,34.90
2023-04-09T00:55:49.492Z,32.03
2023-04-09T00:58:17.012Z,32.13
2023-04-09T01:00:44.167Z,28.73
2023-04-09T01:03:12.009Z,29.77
2023-04-09T01:06:11.921Z,30.40
2023-04-09T01:08:49.174Z,28.30
2023-04-09T01:11:37.946Z,32.53
2023-04-09T01:14:34.872Z,30.07
2023-04-09T01:17:12.295Z,26.67
2023-04-09T01:20:05.365Z,27.60
2023-04-09T01:22:50.828Z,26.97
2023-04-09T01:25:43.617Z,25.37
2023-04-09T01:28:24.422Z,31.47
2023-04-09T01:30:59.605Z,29.03
2023-04-09T01:33:27.727Z,28.40
2023-04-09T01:35:59.317Z,29.10
2023-04-09T01:38:28.835Z,25.60
2023-04-09T01:40:57.356Z,29.20
2023-04-09T01:43:26.281Z,30.77
2023-04-09T01:45:55.089Z,29.30
2023-04-09T01:48:23.607Z,31.60
2023-04-09T01:50:51.894Z,34.70
2023-04-09T01:53:22.347Z,31.97
2023-04-09T01:55:49.586Z,30.73
2023-04-09T01:58:16.788Z,31.23
2023-04-09T02:00:47.926Z,32.13
2023-04-09T02:03:28.372Z,29.90
2023-04-09T02:06:11.333Z,30.87
2023-04-09T02:08:39.202Z,31.50
2023-04-09T02:11:10.597Z,30.10
2023-04-09T02:13:41.225Z,31.00
2023-04-09T02:16:11.304Z,36.57
2023-04-09T02:18:38.761Z,35.27
2023-04-09T02:21:06.522Z,34.40
2023-04-09T02:23:34.940Z,33.37
2023-04-09T02:26:02.517Z,34.40
2023-04-09T02:28:29.676Z,35.47
2023-04-09T02:30:56.917Z,40.57
2023-04-09T02:33:24.170Z,37.50
2023-04-09T02:35:51.470Z,38.30
2023-04-09T02:38:20.033Z,33.30
2023-04-09T02:40:47.553Z,41.07
2023-04-09T02:43:15.763Z,38.07
2023-04-09T02:45:43.493Z,38.57
2023-04-09T02:48:10.937Z,34.40
2023-04-09T02:50:38.424Z,39.10
2023-04-09T02:53:05.801Z,38.40
2023-04-09T02:55:32.983Z,36.50
2023-04-09T02:58:00.517Z,40.97
2023-04-09T03:00:27.795Z,39.57
2023-04-09T03:02:56.583Z,37.63
2023-04-09T03:05:24.149Z,36.30
2023-04-09T03:07:51.537Z,37.67
2023-04-09T03:10:18.935Z,34.17
2023-04-09T03:12:47.775Z,39.60
2023-04-09T03:15:15.213Z,38.37
2023-04-09T03:17:42.413Z,33.50
2023-04-09T03:20:09.832Z,34.80
2023-04-09T03:22:39.658Z,36.00
2023-04-09T03:25:29.999Z,39.60
2023-04-09T03:27:58.047Z,36.03
2023-04-09T03:30:47.307Z,29.77
2023-04-09T03:33:15.497Z,32.80
2023-04-09T03:35:57.982Z,33.10
2023-04-09T03:38:40.840Z,33.73
2023-04-09T03:41:15.977Z,35.10
2023-04-09T03:43:43.459Z,32.77
2023-04-09T03:46:14.813Z,36.37
2023-04-09T03:48:44.840Z,32.30
2023-04-09T03:51:14.296Z,32.80
2023-04-09T03:53:46.441Z,36.03
2023-04-09T03:56:14.192Z,35.67
2023-04-09T03:58:41.737Z,34.10
2023-04-09T04:01:10.654Z,29.83
2023-04-09T04:03:44.153Z,34.37
2023-04-09T04:06:27.188Z,30.43
2023-04-09T04:09:03.190Z,32.00
2023-04-09T04:11:43.449Z,27.83
2023-04-09T04:14:11.240Z,31.87
2023-04-09T04:16:41.400Z,35.80
2023-04-09T04:19:08.951Z,32.30
2023-04-09T04:21:43.267Z,32.53
2023-04-09T04:24:10.547Z,32.40
2023-04-09T04:26:39.313Z,32.57
2023-04-09T04:29:07.029Z,32.80
2023-04-09T04:32:10.153Z,33.13
2023-04-09T04:34:38.501Z,31.97
2023-04-09T04:37:15.535Z,34.37
2023-04-09T04:39:42.886Z,30.50
2023-04-09T04:42:14.862Z,31.10
2023-04-09T04:44:43.401Z,25.50
2023-04-09T04:47:29.016Z,31.70
2023-04-09T04:49:56.247Z,26.00
2023-04-09T04:52:23.583Z,28.37
2023-04-09T04:54:53.355Z,25.30
2023-04-09T04:57:24.005Z,29.07
2023-04-09T04:59:51.393Z,30.43
2023-04-09T05:02:19.624Z,30.50
2023-04-09T05:05:10.286Z,28.00
2023-04-09T05:07:44.582Z,31.80
2023-04-09T05:10:12.622Z,26.90
2023-04-09T05:12:42.701Z,27.87
2023-04-09T05:15:12.190Z,27.93
2023-04-09T05:17:42.489Z,26.57
2023-04-09T05:20:10.638Z,23.57
2023-04-09T05:22:50.970Z,28.60
2023-04-09T05:25:18.582Z,22.53
2023-04-09T05:27:46.264Z,23.97
2023-04-09T05:30:14.040Z,22.10
2023-04-09T05:32:42.618Z,21.23
2023-04-09T05:35:10.823Z,22.43
2023-04-09T05:37:41.606Z,21.83
2023-04-09T05:40:09.631Z,21.00
2023-04-09T05:42:37.865Z,21.20
2023-04-09T05:45:11.824Z,20.63
2023-04-09T05:47:47.379Z,25.13
2023-04-09T05:50:19.748Z,20.70
2023-04-09T05:52:49.595Z,19.97
2023-04-09T05:55:17.172Z,20.17
2023-04-09T05:57:49.033Z,22.77
2023-04-09T06:00:18.286Z,22.27
2023-04-09T06:02:46.402Z,21.00
2023-04-09T06:05:13.998Z,17.60
2023-04-09T06:07:41.275Z,17.47
2023-04-09T06:10:08.783Z,21.77
2023-04-09T06:12:36.318Z,22.67
2023-04-09T06:15:05.444Z,17.40
2023-04-09T06:17:33.394Z,18.93
2023-04-09T06:20:00.896Z,19.40
2023-04-09T06:22:28.155Z,23.13
2023-04-09T06:24:55.715Z,19.10
2023-04-09T06:27:23.677Z,18.27
2023-04-09T06:29:51.348Z,23.03
2023-04-09T06:32:18.808Z,24.20
2023-04-09T06:34:46.636Z,21.20
2023-04-09T06:37:13.859Z,19.70
2023-04-09T06:39:47.653Z,18.20
2023-04-09T06:42:26.608Z,17.80
2023-04-09T06:45:11.371Z,20.67
2023-04-09T06:47:38.709Z,18.87
2023-04-09T06:50:07.194Z,19.03
2023-04-09T06:52:34.502Z,21.87
2023-04-09T06:55:01.847Z,22.30
2023-04-09T06:57:29.600Z,22.87
2023-04-09T06:59:57.225Z,24.13
2023-04-09T07:02:24.781Z,25.53
2023-04-09T07:04:52.268Z,24.90
2023-04-09T07:07:20.849Z,22.70
2023-04-09T07:09:48.829Z,21.40
2023-04-09T07:12:29.645Z,27.67
2023-04-09T07:15:01.436Z,27.73
2023-04-09T07:17:29.214Z,26.37
2023-04-09T07:19:57.047Z,26.23
2023-04-09T07:22:26.751Z,22.60
2023-04-09T07:24:55.230Z,21.33
2023-04-09T07:27:23.484Z,15.37
2023-04-09T07:29:51.095Z,19.17
2023-04-09T07:32:19.165Z,17.93
2023-04-09T07:34:46.666Z,18.70
2023-04-09T07:37:14.173Z,18.27
2023-04-09T07:39:42.470Z,16.40
2023-04-09T07:42:09.693Z,20.73
2023-04-09T07:44:36.993Z,14.80
2023-04-09T07:47:05.659Z,15.80
2023-04-09T07:49:35.161Z,14.83
2023-04-09T07:52:03.904Z,16.23
2023-04-09T07:54:31.691Z,17.30
2023-04-09T07:56:59.479Z,17.83
2023-04-09T07:59:27.754Z,17.57
2023-04-09T08:01:55.284Z,19.57
2023-04-09T08:04:22.820Z,20.20
2023-04-09T08:06:51.666Z,18.40
2023-04-09T08:09:19.593Z,17.00
2023-04-09T08:11:47.890Z,16.33
2023-04-09T08:14:16.236Z,19.80
2023-04-09T08:16:46.070Z,15.93
2023-04-09T08:19:15.707Z,16.73
2023-04-09T08:21:43.865Z,18.77
2023-04-09T08:24:12.293Z,17.20
2023-04-09T08:26:42.047Z,19.20
2023-04-09T08:29:12.226Z,18.97
2023-04-09T08:31:39.933Z,22.47
2023-04-09T08:34:07.246Z,18.07
2023-04-09T08:36:35.634Z,19.17
2023-04-09T08:39:03.929Z,19.63
2023-04-09T08:41:31.606Z,17.33
2023-04-09T08:43:59.968Z,19.70
2023-04-09T08:46:28.471Z,19.17
2023-04-09T08:48:56.074Z,19.93
2023-04-09T08:51:24.545Z,19.57
2023-04-09T08:54:03.720Z,24.70
2023-04-09T08:56:31.918Z,23.00
2023-04-09T08:58:59.210Z,24.20
2023-04-09T09:01:31.994Z,21.67
2023-04-09T09:04:07.299Z,22.10
2023-04-09T09:06:40.940Z,23.93
2023-04-09T09:09:16.500Z,21.70
2023-04-09T09:11:45.801Z,22.63
2023-04-09T09:14:15.963Z,21.87
2023-04-09T09:17:03.552Z,22.67
2023-04-09T09:19:36.261Z,20.67
2023-04-09T09:22:07.896Z,21.37
2023-04-09T09:24:48.485Z,18.57
2023-04-09T09:27:37.218Z,19.47
2023-04-09T09:30:06.590Z,17.50
2023-04-09T09:32:34.322Z,17.17
2023-04-09T09:35:03.265Z,16.23
2023-04-09T09:37:31.480Z,18.47
2023-04-09T09:39:59.494Z,17.77
2023-04-09T09:42:27.478Z,17.00
2023-04-09T09:44:55.894Z,16.00
2023-04-09T09:47:25.537Z,16.53
2023-04-09T09:49:53.167Z,18.00
2023-04-09T09:52:26.010Z,16.53
2023-04-09T09:54:53.991Z,18.83
2023-04-09T09:57:24.020Z,18.10
2023-04-09T09:59:54.770Z,22.90
2023-04-09T10:02:25.062Z,21.20
2023-04-09T10:04:53.115Z,21.60
2023-04-09T10:07:22.381Z,19.53
2023-04-09T10:09:51.440Z,19.30
2023-04-09T10:12:19.897Z,19.90
2023-04-09T10:14:47.604Z,20.23
2023-04-09T10:17:16.112Z,18.67
2023-04-09T10:19:48.095Z,17.83
2023-04-09T10:22:18.767Z,18.13
2023-04-09T10:24:47.055Z,17.13
2023-04-09T10:27:18.163Z,18.13
2023-04-09T10:29:46.680Z,18.93
2023-04-09T10:32:21.172Z,18.90
2023-04-09T10:34:50.746Z,18.93
2023-04-09T10:37:22.591Z,16.90
2023-04-09T10:39:52.336Z,19.13
2023-04-09T10:42:27.220Z,21.07
2023-04-09T10:45:06.476Z,20.30
2023-04-09T10:47:38.005Z,19.63
2023-04-09T10:50:26.956Z,18.80
2023-04-09T10:52:56.440Z,15.80
2023-04-09T10:55:36.251Z,15.83
2023-04-09T10:58:04.915Z,17.63
2023-04-09T11:00:33.692Z,18.77
2023-04-09T11:03:11.193Z,18.20
2023-04-09T11:05:40.348Z,18.77
2023-04-09T11:08:09.629Z,21.40
2023-04-09T11:10:38.315Z,17.10
2023-04-09T11:13:08.246Z,17.03
2023-04-09T11:15:37.349Z,16.90
2023-04-09T11:18:06.958Z,20.07
2023-04-09T11:20:35.106Z,18.47
2023-04-09T11:23:02.950Z,18.70
2023-04-09T11:25:32.739Z,18.00
2023-04-09T11:28:00.527Z,44.90
2023-04-09T11:30:28.862Z,28.60
2023-04-09T11:32:56.468Z,20.93
2023-04-09T11:35:24.109Z,16.00
2023-04-09T11:37:52.276Z,18.53
2023-04-09T11:40:19.891Z,18.63
2023-04-09T11:42:49.446Z,18.03
2023-04-09T11:45:17.489Z,18.70
2023-04-09T11:47:47.127Z,16.63
2023-04-09T11:50:16.882Z,16.47
2023-04-09T11:52:45.692Z,16.37
2023-04-09T11:55:26.691Z,17.80
2023-04-09T11:58:00.739Z,17.87
2023-04-09T12:00:28.871Z,18.03
2023-04-09T12:03:04.402Z,17.13
2023-04-09T12:05:34.069Z,31.80
2023-04-09T12:08:04.943Z,21.40
2023-04-09T12:10:35.364Z,20.03
2023-04-09T12:13:05.376Z,18.47
2023-04-09T12:15:38.374Z,21.37
2023-04-09T12:18:08.930Z,20.47
2023-04-09T12:20:44.254Z,27.87
2023-04-09T12:23:12.818Z,24.47
2023-04-09T12:25:41.609Z,40.00
2023-04-09T12:28:10.240Z,19.70
2023-04-09T12:30:37.773Z,26.13
2023-04-09T12:33:05.432Z,24.93
2023-04-09T12:35:35.037Z,24.93
2023-04-09T12:38:02.703Z,18.67
2023-04-09T12:40:30.559Z,18.70
2023-04-09T12:42:58.078Z,18.87
2023-04-09T12:45:25.779Z,19.20
2023-04-09T12:47:53.397Z,18.10
2023-04-09T12:50:20.934Z,18.37
2023-04-09T12:52:48.629Z,18.40
2023-04-09T12:55:16.583Z,18.27
2023-04-09T12:57:45.740Z,23.40
2023-04-09T13:00:13.819Z,20.93
2023-04-09T13:02:41.593Z,25.63
2023-04-09T13:05:09.850Z,19.20
2023-04-09T13:07:37.498Z,24.47
2023-04-09T13:10:05.389Z,27.57
2023-04-09T13:12:32.704Z,20.90
2023-04-09T13:15:00.521Z,19.90
2023-04-09T13:17:27.816Z,17.97
2023-04-09T13:19:55.002Z,17.80
2023-04-09T13:22:22.611Z,19.13
2023-04-09T13:24:49.771Z,19.07
2023-04-09T13:27:17.602Z,17.00
2023-04-09T13:29:44.826Z,17.00
2023-04-09T13:32:12.003Z,18.37
2023-04-09T13:34:40.449Z,17.93
2023-04-09T13:37:08.153Z,17.90
2023-04-09T13:39:36.231Z,16.33
2023-04-09T13:42:16.868Z,17.30
2023-04-09T13:44:45.463Z,17.70
2023-04-09T13:47:14.158Z,16.73
2023-04-09T13:49:42.288Z,15.30
2023-04-09T13:52:10.542Z,16.80
2023-04-09T13:54:38.091Z,20.63
2023-04-09T13:57:05.399Z,17.70
2023-04-09T13:59:33.256Z,18.77
2023-04-09T14:02:00.764Z,20.40
2023-04-09T14:04:28.147Z,17.20
2023-04-09T14:06:57.139Z,17.50
2023-04-09T14:09:24.556Z,16.37
2023-04-09T14:11:54.551Z,15.67
2023-04-09T14:14:21.745Z,17.23
2023-04-09T14:16:50.277Z,14.50
2023-04-09T14:19:17.571Z,14.73
2023-04-09T14:21:44.775Z,15.80
2023-04-09T14:24:12.079Z,16.03
2023-04-09T14:26:39.211Z,13.60
2023-04-09T14:29:06.660Z,16.17
2023-04-09T14:31:33.865Z,13.90
2023-04-09T14:34:01.106Z,13.90
2023-04-09T14:36:28.356Z,13.60
2023-04-09T14:38:57.593Z,13.47
2023-04-09T14:41:26.178Z,13.77
2023-04-09T14:43:53.425Z,14.40
2023-04-09T14:46:21.927Z,13.63
2023-04-09T14:48:49.444Z,14.40
2023-04-09T14:51:17.333Z,15.50
2023-04-09T14:53:44.511Z,14.87
2023-04-09T14:56:12.385Z,15.83
2023-04-09T14:58:39.640Z,15.70
2023-04-09T15:01:06.877Z,14.97
2023-04-09T15:03:34.241Z,16.37
2023-04-09T15:06:01.583Z,16.03
2023-04-09T15:08:28.855Z,15.10
2023-04-09T15:10:56.007Z,15.13
2023-04-09T15:13:24.023Z,15.27
2023-04-09T15:15:51.379Z,14.80
2023-04-09T15:18:21.301Z,15.33
2023-04-09T15:20:50.407Z,15.70
2023-04-09T15:23:17.652Z,14.93
2023-04-09T15:25:45.442Z,15.67
2023-04-09T15:28:14.319Z,15.43
2023-04-09T15:30:41.811Z,15.03
2023-04-09T15:33:09.201Z,15.47
2023-04-09T15:35:36.555Z,14.83
2023-04-09T15:38:03.842Z,15.20
2023-04-09T15:40:31.903Z,15.23
2023-04-09T15:42:59.441Z,15.27
2023-04-09T15:45:27.121Z,16.57
2023-04-09T15:47:55.255Z,15.37
2023-04-09T15:50:22.916Z,16.70
2023-04-09T15:52:50.396Z,15.57
2023-04-09T15:55:18.493Z,14.00
2023-04-09T15:57:46.763Z,14.20
2023-04-09T16:00:15.477Z,13.80
2023-04-09T16:02:43.189Z,14.37
2023-04-09T16:05:10.764Z,15.17
2023-04-09T16:07:39.546Z,14.90
2023-04-09T16:10:07.472Z,14.70
2023-04-09T16:12:34.930Z,13.70
2023-04-09T16:15:02.445Z,13.77
2023-04-09T16:17:30.888Z,13.37
2023-04-09T16:19:58.450Z,14.53
2023-04-09T16:22:25.958Z,14.20
2023-04-09T16:24:53.311Z,15.20
2023-04-09T16:27:20.762Z,15.30
2023-04-09T16:29:48.077Z,14.20
2023-04-09T16:32:15.420Z,14.03
2023-04-09T16:34:42.669Z,13.30
2023-04-09T16:37:09.955Z,14.03
2023-04-09T16:39:37.311Z,14.17
2023-04-09T16:42:04.823Z,14.03
2023-04-09T16:44:32.124Z,14.83
2023-04-09T16:47:01.026Z,14.30
2023-04-09T16:49:28.485Z,14.83
2023-04-09T16:51:57.080Z,13.87
2023-04-09T16:54:24.716Z,15.83
2023-04-09T16:56:53.193Z,14.63
2023-04-09T16:59:21.373Z,15.40
2023-04-09T17:01:49.658Z,14.53
2023-04-09T17:04:17.862Z,16.10
2023-04-09T17:06:45.772Z,15.10
2023-04-09T17:09:13.171Z,15.97
2023-04-09T17:11:40.885Z,13.90
2023-04-09T17:14:08.295Z,14.60
2023-04-09T17:16:37.310Z,14.50
2023-04-09T17:19:05.090Z,14.80
2023-04-09T17:21:33.181Z,14.13
2023-04-09T17:24:02.710Z,14.90
2023-04-09T17:26:30.065Z,16.20
2023-04-09T17:28:58.476Z,15.20
2023-04-09T17:31:26.725Z,17.37
2023-04-09T17:33:54.380Z,15.90
2023-04-09T17:36:22.855Z,15.63
2023-04-09T17:38:52.612Z,14.60
2023-04-09T17:41:20.874Z,15.60
2023-04-09T17:43:48.703Z,16.47
2023-04-09T17:46:17.208Z,15.33
2023-04-09T17:48:44.768Z,14.83
2023-04-09T17:51:16.248Z,14.97
2023-04-09T17:53:44.187Z,14.77
2023-04-09T17:56:18.034Z,15.47
2023-04-09T17:58:46.382Z,17.03
2023-04-09T18:01:14.030Z,17.13
2023-04-09T18:03:48.779Z,14.00
2023-04-09T18:06:17.305Z,17.60
2023-04-09T18:08:44.962Z,16.10
2023-04-09T18:11:15.353Z,17.90
2023-04-09T18:13:42.864Z,22.23
2023-04-09T18:16:13.469Z,21.17
2023-04-09T18:18:41.310Z,25.17
2023-04-09T18:21:09.605Z,27.23
2023-04-09T18:23:36.975Z,26.07
2023-04-09T18:26:04.547Z,24.90
2023-04-09T18:28:32.072Z,24.80
2023-04-09T18:30:59.520Z,27.07
2023-04-09T18:33:27.033Z,23.20
2023-04-09T18:35:54.884Z,21.80
2023-04-09T18:38:22.546Z,23.00
2023-04-09T18:40:50.223Z,22.13
2023-04-09T18:43:17.521Z,20.30
2023-04-09T18:45:44.854Z,19.97
2023-04-09T18:48:12.633Z,17.80
2023-04-09T18:50:39.959Z,20.50
2023-04-09T18:53:07.509Z,20.10
2023-04-09T18:55:38.006Z,21.20
2023-04-09T18:58:12.530Z,20.53
2023-04-09T19:00:39.927Z,18.83
2023-04-09T19:03:08.686Z,20.40
2023-04-09T19:05:36.199Z,19.23
2023-04-09T19:08:06.729Z,18.50
2023-04-09T19:10:34.048Z,19.60
2023-04-09T19:13:02.238Z,17.87
2023-04-09T19:15:29.795Z,16.47
2023-04-09T19:17:57.437Z,22.07
2023-04-09T19:20:24.843Z,18.13
2023-04-09T19:22:54.442Z,18.60
2023-04-09T19:25:22.778Z,18.37
2023-04-09T19:27:50.541Z,19.73
2023-04-09T19:30:17.905Z,20.97
2023-04-09T19:32:46.248Z,20.77
2023-04-09T19:35:13.687Z,20.67
2023-04-09T19:37:41.112Z,19.50
2023-04-09T19:40:09.903Z,20.30
2023-04-09T19:42:37.984Z,19.77
2023-04-09T19:45:05.846Z,17.43
2023-04-09T19:47:34.696Z,18.13
2023-04-09T19:50:02.246Z,18.03
2023-04-09T19:52:31.607Z,18.50
2023-04-09T19:55:01.844Z,18.30
2023-04-09T19:57:33.415Z,20.40
2023-04-09T20:00:02.301Z,19.27
2023-04-09T20:02:41.389Z,23.83
2023-04-09T20:05:10.372Z,27.27
2023-04-09T20:07:38.890Z,22.10
2023-04-09T20:10:06.842Z,23.87
2023-04-09T20:12:34.433Z,22.23
2023-04-09T20:15:02.390Z,23.33
2023-04-09T20:17:29.765Z,22.93
2023-04-09T20:19:57.162Z,21.17
2023-04-09T20:22:24.628Z,24.00
2023-04-09T20:24:52.559Z,24.43
2023-04-09T20:27:21.956Z,25.57
2023-04-09T20:29:49.558Z,23.50
2023-04-09T20:32:17.030Z,25.07
2023-04-09T20:34:44.510Z,26.60
2023-04-09T20:37:11.903Z,25.43
2023-04-09T20:39:39.198Z,25.77
2023-04-09T20:42:06.406Z,24.87
2023-04-09T20:44:35.802Z,26.00
2023-04-09T20:47:03.062Z,26.30
2023-04-09T20:49:30.557Z,25.90
2023-04-09T20:51:58.199Z,26.80
2023-04-09T20:54:25.745Z,26.83
2023-04-09T20:56:52.959Z,24.50
2023-04-09T20:59:20.261Z,25.13
2023-04-09T21:01:48.213Z,25.73
2023-04-09T21:04:16.081Z,24.97
2023-04-09T21:06:43.505Z,26.23
2023-04-09T21:09:12.440Z,24.10
2023-04-09T21:11:39.769Z,25.53
2023-04-09T21:14:07.888Z,23.60
2023-04-09T21:16:36.426Z,25.03
2023-04-09T21:19:07.100Z,25.97
2023-04-09T21:21:34.991Z,25.67
2023-04-09T21:24:02.520Z,24.03
2023-04-09T21:26:38.674Z,28.47
2023-04-09T21:29:16.166Z,25.37
2023-04-09T21:31:43.409Z,26.97
2023-04-09T21:34:11.454Z,29.13
2023-04-09T21:36:39.673Z,30.37
2023-04-09T21:39:07.645Z,32.30
2023-04-09T21:41:35.390Z,32.80
2023-04-09T21:44:08.019Z,31.17
2023-04-09T21:46:41.411Z,33.87
2023-04-09T21:49:08.763Z,35.17
2023-04-09T21:51:36.526Z,33.40
2023-04-09T21:54:04.975Z,33.17
2023-04-09T21:56:33.466Z,31.60
2023-04-09T21:59:01.195Z,32.33
2023-04-09T22:01:30.538Z,33.23
2023-04-09T22:03:59.475Z,30.77
2023-04-09T22:06:29.871Z,32.17
2023-04-09T22:08:57.959Z,34.00
2023-04-09T22:11:28.111Z,31.87
2023-04-09T22:13:57.593Z,33.83
2023-04-09T22:16:25.774Z,34.40
2023-04-09T22:18:54.835Z,33.00
2023-04-09T22:21:22.729Z,39.07
2023-04-09T22:23:50.468Z,30.70
2023-04-09T22:26:18.322Z,30.43
2023-04-09T22:28:45.631Z,28.77
2023-04-09T22:31:12.961Z,26.43
2023-04-09T22:33:40.341Z,30.27
2023-04-09T22:36:08.143Z,31.40
2023-04-09T22:38:35.955Z,31.37
2023-04-09T22:41:05.800Z,33.17
2023-04-09T22:43:36.091Z,34.23
2023-04-09T22:46:03.449Z,34.13
2023-04-09T22:48:30.842Z,30.10
2023-04-09T22:50:58.618Z,30.17
2023-04-09T22:53:26.319Z,33.17
2023-04-09T22:55:58.498Z,30.20
2023-04-09T22:58:25.673Z,28.77
2023-04-09T23:00:53.514Z,28.87
2023-04-09T23:03:23.069Z,25.33
2023-04-09T23:05:50.744Z,27.50
2023-04-09T23:08:17.929Z,30.90
2023-04-09T23:10:45.908Z,28.50
2023-04-09T23:13:17.983Z,27.43
2023-04-09T23:15:47.806Z,27.40
2023-04-09T23:18:15.239Z,27.87
2023-04-09T23:20:43.083Z,29.20
2023-04-09T23:23:11.826Z,30.23
2023-04-09T23:25:42.217Z,27.30
2023-04-09T23:28:10.217Z,25.80
2023-04-09T23:30:37.469Z,28.17
2023-04-09T23:33:04.859Z,26.13
2023-04-09T23:35:32.600Z,23.70
2023-04-09T23:38:02.007Z,25.40
2023-04-09T23:40:29.300Z,28.57
2023-04-09T23:42:56.544Z,25.93
2023-04-09T23:45:23.741Z,30.90
2023-04-09T23:47:51.387Z,29.93
2023-04-09T23:50:18.790Z,31.13
2023-04-09T23:52:48.828Z,28.80
2023-04-09T23:55:16.323Z,30.67
2023-04-09T23:57:43.662Z,31.33
